CheckWX is a tool to help pilots better visualize weather data.  It is not intended as a substitute for an official pre-flight weather briefing.

22:15:11 UTC

06C METAR
Schaumburg Regional Airport
Chicago/Schaumburg, Illinois, USA
Current

20 mins ago

K06C 252155Z AUTO 02009KT 10SM CLR 05/M17 A3029 RMK AO2 T00461172
Observed
Mar-25 @ 21:55 UTC
Wind
  • 020° at 9 KTS
Visibility
10 SM
Flight Rules
VFR
Cloud Levels
  • Clear skies
Temperature
C / 41°F
Dewpoint
-17°C / 1°F
Humidity
19%
Altimeter
30.29" Hg
Pressure
1025.72 hPa
Previous

40 mins ago

K06C 252135Z AUTO 03010G16KT 10SM CLR 05/M18 A3029 RMK AO2 T00481182
Observed
Mar-25 @ 21:35 UTC
Wind
  • 030° at 10 KTS
  • Gusting to 16 KTS
Visibility
10 SM
Flight Rules
VFR
Cloud Levels
  • Clear skies
Temperature
C / 41°F
Dewpoint
-18°C / -0°F
Humidity
17%
Altimeter
30.29" Hg
Pressure
1025.72 hPa
Previous

60 mins ago

K06C 252115Z AUTO 03012G18KT 10SM CLR 05/M16 A3029 RMK AO2 T00541163
Observed
Mar-25 @ 21:15 UTC
Wind
  • 030° at 12 KTS
  • Gusting to 18 KTS
Visibility
10 SM
Flight Rules
VFR
Cloud Levels
  • Clear skies
Temperature
C / 41°F
Dewpoint
-16°C / 3°F
Humidity
20%
Altimeter
30.29" Hg
Pressure
1025.72 hPa